sensor_id;sensor_type;location;lat;lon;timestamp;temperature;humidity
79760;DHT22;70512;42.122;24.732;2024-02-04T00:00:08;9.70;59.90
79760;DHT22;70512;42.122;24.732;2024-02-04T00:02:37;9.60;60.10
79760;DHT22;70512;42.122;24.732;2024-02-04T00:05:05;9.60;60.20
79760;DHT22;70512;42.122;24.732;2024-02-04T00:07:33;9.60;60.20
79760;DHT22;70512;42.122;24.732;2024-02-04T00:10:00;9.40;60.40
79760;DHT22;70512;42.122;24.732;2024-02-04T00:12:28;9.40;60.70
79760;DHT22;70512;42.122;24.732;2024-02-04T00:14:56;9.30;60.90
79760;DHT22;70512;42.122;24.732;2024-02-04T00:17:23;9.30;61.30
79760;DHT22;70512;42.122;24.732;2024-02-04T00:19:53;9.20;61.70
79760;DHT22;70512;42.122;24.732;2024-02-04T00:22:20;9.20;61.70
79760;DHT22;70512;42.122;24.732;2024-02-04T00:24:48;9.30;61.60
79760;DHT22;70512;42.122;24.732;2024-02-04T00:27:16;9.20;61.60
79760;DHT22;70512;42.122;24.732;2024-02-04T00:29:43;9.30;61.70
79760;DHT22;70512;42.122;24.732;2024-02-04T00:32:11;9.40;61.40
79760;DHT22;70512;42.122;24.732;2024-02-04T00:34:39;9.50;61.20
79760;DHT22;70512;42.122;24.732;2024-02-04T00:37:06;9.50;61.20
79760;DHT22;70512;42.122;24.732;2024-02-04T00:39:34;9.50;61.10
79760;DHT22;70512;42.122;24.732;2024-02-04T00:42:02;9.50;61.40
79760;DHT22;70512;42.122;24.732;2024-02-04T00:44:29;9.50;61.30
79760;DHT22;70512;42.122;24.732;2024-02-04T00:46:57;9.50;61.40
79760;DHT22;70512;42.122;24.732;2024-02-04T00:49:25;9.50;61.20
79760;DHT22;70512;42.122;24.732;2024-02-04T00:51:53;9.50;61.00
79760;DHT22;70512;42.122;24.732;2024-02-04T00:54:21;9.60;60.80
79760;DHT22;70512;42.122;24.732;2024-02-04T00:56:48;9.50;60.90
79760;DHT22;70512;42.122;24.732;2024-02-04T00:59:16;9.50;61.00
79760;DHT22;70512;42.122;24.732;2024-02-04T01:01:44;9.40;61.30
79760;DHT22;70512;42.122;24.732;2024-02-04T01:04:12;9.30;61.70
79760;DHT22;70512;42.122;24.732;2024-02-04T01:06:39;9.20;61.90
79760;DHT22;70512;42.122;24.732;2024-02-04T01:09:07;9.10;62.00
79760;DHT22;70512;42.122;24.732;2024-02-04T01:11:35;9.10;62.30
79760;DHT22;70512;42.122;24.732;2024-02-04T01:14:02;9.00;62.70
79760;DHT22;70512;42.122;24.732;2024-02-04T01:16:30;9.00;62.70
79760;DHT22;70512;42.122;24.732;2024-02-04T01:18:58;9.00;63.60
79760;DHT22;70512;42.122;24.732;2024-02-04T01:21:25;9.10;62.60
79760;DHT22;70512;42.122;24.732;2024-02-04T01:23:54;9.10;62.50
79760;DHT22;70512;42.122;24.732;2024-02-04T01:26:21;9.10;62.60
79760;DHT22;70512;42.122;24.732;2024-02-04T01:28:50;9.10;62.70
79760;DHT22;70512;42.122;24.732;2024-02-04T01:31:18;9.10;62.60
79760;DHT22;70512;42.122;24.732;2024-02-04T01:33:46;9.20;62.40
79760;DHT22;70512;42.122;24.732;2024-02-04T01:36:13;9.20;62.30
79760;DHT22;70512;42.122;24.732;2024-02-04T01:38:41;9.20;62.40
79760;DHT22;70512;42.122;24.732;2024-02-04T01:41:09;9.20;62.60
79760;DHT22;70512;42.122;24.732;2024-02-04T01:43:37;9.20;62.60
79760;DHT22;70512;42.122;24.732;2024-02-04T01:46:04;9.20;63.70
79760;DHT22;70512;42.122;24.732;2024-02-04T01:48:33;9.40;62.60
79760;DHT22;70512;42.122;24.732;2024-02-04T01:51:01;9.40;62.40
79760;DHT22;70512;42.122;24.732;2024-02-04T01:53:30;9.40;62.40
79760;DHT22;70512;42.122;24.732;2024-02-04T01:55:59;9.40;62.40
79760;DHT22;70512;42.122;24.732;2024-02-04T01:58:27;9.40;62.30
79760;DHT22;70512;42.122;24.732;2024-02-04T02:00:54;9.30;62.80
79760;DHT22;70512;42.122;24.732;2024-02-04T02:03:22;9.40;62.80
79760;DHT22;70512;42.122;24.732;2024-02-04T02:05:50;9.40;62.70
79760;DHT22;70512;42.122;24.732;2024-02-04T02:08:19;9.30;63.20
79760;DHT22;70512;42.122;24.732;2024-02-04T02:10:48;9.30;63.50
79760;DHT22;70512;42.122;24.732;2024-02-04T02:13:26;9.40;63.30
79760;DHT22;70512;42.122;24.732;2024-02-04T02:15:56;9.50;63.30
79760;DHT22;70512;42.122;24.732;2024-02-04T02:18:39;9.40;63.40
79760;DHT22;70512;42.122;24.732;2024-02-04T02:23:59;9.40;63.90
79760;DHT22;70512;42.122;24.732;2024-02-04T02:26:23;9.40;64.00
79760;DHT22;70512;42.122;24.732;2024-02-04T02:28:51;9.50;64.00
79760;DHT22;70512;42.122;24.732;2024-02-04T02:31:18;9.50;64.30
79760;DHT22;70512;42.122;24.732;2024-02-04T02:33:47;9.50;64.40
79760;DHT22;70512;42.122;24.732;2024-02-04T02:36:17;9.60;64.40
79760;DHT22;70512;42.122;24.732;2024-02-04T02:38:52;9.60;64.10
79760;DHT22;70512;42.122;24.732;2024-02-04T02:41:16;9.60;64.00
79760;DHT22;70512;42.122;24.732;2024-02-04T02:43:45;9.70;64.00
79760;DHT22;70512;42.122;24.732;2024-02-04T02:46:14;9.70;63.60
79760;DHT22;70512;42.122;24.732;2024-02-04T02:48:42;9.60;63.50
79760;DHT22;70512;42.122;24.732;2024-02-04T02:51:09;9.70;63.30
79760;DHT22;70512;42.122;24.732;2024-02-04T02:53:37;9.70;63.10
79760;DHT22;70512;42.122;24.732;2024-02-04T02:56:05;9.70;63.30
79760;DHT22;70512;42.122;24.732;2024-02-04T02:58:33;9.60;63.50
79760;DHT22;70512;42.122;24.732;2024-02-04T03:01:01;9.50;63.50
79760;DHT22;70512;42.122;24.732;2024-02-04T03:03:29;9.40;63.50
79760;DHT22;70512;42.122;24.732;2024-02-04T03:05:57;9.50;63.80
79760;DHT22;70512;42.122;24.732;2024-02-04T03:08:24;9.50;64.10
79760;DHT22;70512;42.122;24.732;2024-02-04T03:10:52;9.50;63.90
79760;DHT22;70512;42.122;24.732;2024-02-04T03:13:20;9.50;63.90
79760;DHT22;70512;42.122;24.732;2024-02-04T03:15:47;9.50;64.40
79760;DHT22;70512;42.122;24.732;2024-02-04T03:18:15;9.40;63.50
79760;DHT22;70512;42.122;24.732;2024-02-04T03:20:43;9.40;63.10
79760;DHT22;70512;42.122;24.732;2024-02-04T03:23:10;9.40;63.00
79760;DHT22;70512;42.122;24.732;2024-02-04T03:25:38;9.30;63.00
79760;DHT22;70512;42.122;24.732;2024-02-04T03:28:06;9.30;63.90
79760;DHT22;70512;42.122;24.732;2024-02-04T03:30:33;9.20;63.20
79760;DHT22;70512;42.122;24.732;2024-02-04T03:33:01;9.20;63.50
79760;DHT22;70512;42.122;24.732;2024-02-04T03:35:29;9.10;63.70
79760;DHT22;70512;42.122;24.732;2024-02-04T03:37:56;9.10;64.10
79760;DHT22;70512;42.122;24.732;2024-02-04T03:40:24;9.00;64.20
79760;DHT22;70512;42.122;24.732;2024-02-04T03:42:52;9.00;64.30
79760;DHT22;70512;42.122;24.732;2024-02-04T03:45:20;8.90;64.60
79760;DHT22;70512;42.122;24.732;2024-02-04T03:47:47;8.90;64.50
79760;DHT22;70512;42.122;24.732;2024-02-04T03:50:15;8.90;64.20
79760;DHT22;70512;42.122;24.732;2024-02-04T03:52:43;9.00;64.00
79760;DHT22;70512;42.122;24.732;2024-02-04T03:55:10;9.00;64.10
79760;DHT22;70512;42.122;24.732;2024-02-04T03:57:38;9.00;63.60
79760;DHT22;70512;42.122;24.732;2024-02-04T04:00:07;9.00;63.50
79760;DHT22;70512;42.122;24.732;2024-02-04T04:02:35;9.00;63.40
79760;DHT22;70512;42.122;24.732;2024-02-04T04:05:03;9.10;63.20
79760;DHT22;70512;42.122;24.732;2024-02-04T04:07:31;9.10;63.00
79760;DHT22;70512;42.122;24.732;2024-02-04T04:09:59;9.10;63.20
79760;DHT22;70512;42.122;24.732;2024-02-04T04:12:26;9.20;63.40
79760;DHT22;70512;42.122;24.732;2024-02-04T04:14:54;9.10;63.90
79760;DHT22;70512;42.122;24.732;2024-02-04T04:17:22;9.20;65.20
79760;DHT22;70512;42.122;24.732;2024-02-04T04:19:49;9.30;64.90
79760;DHT22;70512;42.122;24.732;2024-02-04T04:22:17;9.40;64.30
79760;DHT22;70512;42.122;24.732;2024-02-04T04:24:45;9.50;64.00
79760;DHT22;70512;42.122;24.732;2024-02-04T04:27:12;9.60;63.70
79760;DHT22;70512;42.122;24.732;2024-02-04T04:29:40;9.60;63.50
79760;DHT22;70512;42.122;24.732;2024-02-04T04:32:08;9.60;63.80
79760;DHT22;70512;42.122;24.732;2024-02-04T04:34:35;9.60;64.10
79760;DHT22;70512;42.122;24.732;2024-02-04T04:37:03;9.60;64.50
79760;DHT22;70512;42.122;24.732;2024-02-04T04:39:31;9.60;64.70
79760;DHT22;70512;42.122;24.732;2024-02-04T04:41:58;9.60;65.00
79760;DHT22;70512;42.122;24.732;2024-02-04T04:44:26;9.60;65.00
79760;DHT22;70512;42.122;24.732;2024-02-04T04:46:54;9.60;64.90
79760;DHT22;70512;42.122;24.732;2024-02-04T04:49:21;9.60;64.60
79760;DHT22;70512;42.122;24.732;2024-02-04T04:51:49;9.60;64.40
79760;DHT22;70512;42.122;24.732;2024-02-04T04:54:17;9.70;64.10
79760;DHT22;70512;42.122;24.732;2024-02-04T04:56:44;9.70;64.10
79760;DHT22;70512;42.122;24.732;2024-02-04T04:59:12;9.70;63.70
79760;DHT22;70512;42.122;24.732;2024-02-04T05:01:47;9.80;63.50
79760;DHT22;70512;42.122;24.732;2024-02-04T05:04:16;9.90;63.40
79760;DHT22;70512;42.122;24.732;2024-02-04T05:06:46;9.90;63.20
79760;DHT22;70512;42.122;24.732;2024-02-04T05:09:13;10.00;63.00
79760;DHT22;70512;42.122;24.732;2024-02-04T05:11:41;10.00;62.90
79760;DHT22;70512;42.122;24.732;2024-02-04T05:14:09;10.10;62.90
79760;DHT22;70512;42.122;24.732;2024-02-04T05:16:36;10.10;62.80
79760;DHT22;70512;42.122;24.732;2024-02-04T05:19:04;10.10;62.70
79760;DHT22;70512;42.122;24.732;2024-02-04T05:21:31;10.10;62.70
79760;DHT22;70512;42.122;24.732;2024-02-04T05:23:59;10.10;62.60
79760;DHT22;70512;42.122;24.732;2024-02-04T05:26:27;10.10;62.40
79760;DHT22;70512;42.122;24.732;2024-02-04T05:28:54;10.10;62.50
79760;DHT22;70512;42.122;24.732;2024-02-04T05:31:22;10.10;62.70
79760;DHT22;70512;42.122;24.732;2024-02-04T05:33:52;10.00;62.90
79760;DHT22;70512;42.122;24.732;2024-02-04T05:36:20;10.00;63.30
79760;DHT22;70512;42.122;24.732;2024-02-04T05:38:47;10.00;64.20
79760;DHT22;70512;42.122;24.732;2024-02-04T05:41:15;10.10;63.30
79760;DHT22;70512;42.122;24.732;2024-02-04T05:43:43;10.10;63.00
79760;DHT22;70512;42.122;24.732;2024-02-04T05:46:10;10.10;62.80
79760;DHT22;70512;42.122;24.732;2024-02-04T05:48:38;10.10;62.60
79760;DHT22;70512;42.122;24.732;2024-02-04T05:51:07;10.20;62.70
79760;DHT22;70512;42.122;24.732;2024-02-04T05:53:35;10.20;62.40
79760;DHT22;70512;42.122;24.732;2024-02-04T05:56:02;10.20;62.50
79760;DHT22;70512;42.122;24.732;2024-02-04T05:58:30;10.20;62.30
79760;DHT22;70512;42.122;24.732;2024-02-04T06:00:58;10.20;62.30
79760;DHT22;70512;42.122;24.732;2024-02-04T06:03:25;10.20;62.50
79760;DHT22;70512;42.122;24.732;2024-02-04T06:05:53;10.20;62.40
79760;DHT22;70512;42.122;24.732;2024-02-04T06:08:21;10.20;62.50
79760;DHT22;70512;42.122;24.732;2024-02-04T06:10:48;10.20;62.70
79760;DHT22;70512;42.122;24.732;2024-02-04T06:13:16;10.20;62.70
79760;DHT22;70512;42.122;24.732;2024-02-04T06:15:43;10.10;63.10
79760;DHT22;70512;42.122;24.732;2024-02-04T06:18:11;10.10;63.20
79760;DHT22;70512;42.122;24.732;2024-02-04T06:20:39;10.20;63.90
79760;DHT22;70512;42.122;24.732;2024-02-04T06:23:07;10.20;63.30
79760;DHT22;70512;42.122;24.732;2024-02-04T06:25:34;10.20;63.10
79760;DHT22;70512;42.122;24.732;2024-02-04T06:28:02;10.20;63.10
79760;DHT22;70512;42.122;24.732;2024-02-04T06:30:30;10.20;63.20
79760;DHT22;70512;42.122;24.732;2024-02-04T06:32:57;10.10;63.50
79760;DHT22;70512;42.122;24.732;2024-02-04T06:35:25;10.10;63.60
79760;DHT22;70512;42.122;24.732;2024-02-04T06:37:53;10.10;63.60
79760;DHT22;70512;42.122;24.732;2024-02-04T06:40:20;10.20;63.80
79760;DHT22;70512;42.122;24.732;2024-02-04T06:42:48;10.30;63.80
79760;DHT22;70512;42.122;24.732;2024-02-04T06:45:16;10.40;64.40
79760;DHT22;70512;42.122;24.732;2024-02-04T06:47:44;10.50;63.90
79760;DHT22;70512;42.122;24.732;2024-02-04T06:50:12;10.60;63.10
79760;DHT22;70512;42.122;24.732;2024-02-04T06:52:46;10.80;62.80
79760;DHT22;70512;42.122;24.732;2024-02-04T06:55:12;10.80;62.80
79760;DHT22;70512;42.122;24.732;2024-02-04T06:57:40;10.90;62.80
79760;DHT22;70512;42.122;24.732;2024-02-04T07:00:07;11.00;62.80
79760;DHT22;70512;42.122;24.732;2024-02-04T07:02:35;11.10;62.90
79760;DHT22;70512;42.122;24.732;2024-02-04T07:05:03;11.20;62.80
79760;DHT22;70512;42.122;24.732;2024-02-04T07:07:31;11.30;62.70
79760;DHT22;70512;42.122;24.732;2024-02-04T07:09:59;11.40;62.60
79760;DHT22;70512;42.122;24.732;2024-02-04T07:12:27;11.40;62.40
79760;DHT22;70512;42.122;24.732;2024-02-04T07:14:55;11.50;62.50
79760;DHT22;70512;42.122;24.732;2024-02-04T07:17:22;11.60;61.90
79760;DHT22;70512;42.122;24.732;2024-02-04T07:19:50;11.70;61.80
79760;DHT22;70512;42.122;24.732;2024-02-04T07:22:18;11.70;61.50
79760;DHT22;70512;42.122;24.732;2024-02-04T07:24:45;11.70;61.40
79760;DHT22;70512;42.122;24.732;2024-02-04T07:27:13;11.80;61.20
79760;DHT22;70512;42.122;24.732;2024-02-04T07:29:41;11.90;61.00
79760;DHT22;70512;42.122;24.732;2024-02-04T07:32:08;12.00;60.60
79760;DHT22;70512;42.122;24.732;2024-02-04T07:34:36;12.00;60.20
79760;DHT22;70512;42.122;24.732;2024-02-04T07:37:04;12.00;60.10
79760;DHT22;70512;42.122;24.732;2024-02-04T07:39:32;12.00;60.00
79760;DHT22;70512;42.122;24.732;2024-02-04T07:41:59;12.20;59.70
79760;DHT22;70512;42.122;24.732;2024-02-04T07:44:28;12.30;59.50
79760;DHT22;70512;42.122;24.732;2024-02-04T07:46:56;12.80;58.20
79760;DHT22;70512;42.122;24.732;2024-02-04T07:49:23;13.40;56.60
79760;DHT22;70512;42.122;24.732;2024-02-04T07:51:51;15.00;52.90
79760;DHT22;70512;42.122;24.732;2024-02-04T07:54:19;15.80;50.10
79760;DHT22;70512;42.122;24.732;2024-02-04T07:56:46;16.00;49.00
79760;DHT22;70512;42.122;24.732;2024-02-04T07:59:14;16.70;48.20
79760;DHT22;70512;42.122;24.732;2024-02-04T08:01:42;16.80;47.40
79760;DHT22;70512;42.122;24.732;2024-02-04T08:04:09;16.90;46.50
79760;DHT22;70512;42.122;24.732;2024-02-04T08:06:37;17.00;46.80
79760;DHT22;70512;42.122;24.732;2024-02-04T08:09:05;16.60;47.00
79760;DHT22;70512;42.122;24.732;2024-02-04T08:11:33;16.50;47.90
79760;DHT22;70512;42.122;24.732;2024-02-04T08:14:00;16.20;48.80
79760;DHT22;70512;42.122;24.732;2024-02-04T08:16:29;16.40;48.20
79760;DHT22;70512;42.122;24.732;2024-02-04T08:18:57;16.40;48.20
79760;DHT22;70512;42.122;24.732;2024-02-04T08:21:25;16.00;49.40
79760;DHT22;70512;42.122;24.732;2024-02-04T08:23:53;15.30;51.00
79760;DHT22;70512;42.122;24.732;2024-02-04T08:26:21;15.20;51.90
79760;DHT22;70512;42.122;24.732;2024-02-04T08:28:48;14.90;52.40
79760;DHT22;70512;42.122;24.732;2024-02-04T08:31:16;14.70;52.90
79760;DHT22;70512;42.122;24.732;2024-02-04T08:33:44;14.60;53.40
79760;DHT22;70512;42.122;24.732;2024-02-04T08:36:11;14.70;54.10
79760;DHT22;70512;42.122;24.732;2024-02-04T08:38:39;14.60;53.70
79760;DHT22;70512;42.122;24.732;2024-02-04T08:41:07;14.80;53.90
79760;DHT22;70512;42.122;24.732;2024-02-04T08:43:34;15.10;52.60
79760;DHT22;70512;42.122;24.732;2024-02-04T08:46:05;15.30;51.90
79760;DHT22;70512;42.122;24.732;2024-02-04T08:48:32;15.40;51.70
79760;DHT22;70512;42.122;24.732;2024-02-04T08:51:02;15.60;51.50
79760;DHT22;70512;42.122;24.732;2024-02-04T08:53:29;16.00;49.60
79760;DHT22;70512;42.122;24.732;2024-02-04T08:55:57;16.10;49.40
79760;DHT22;70512;42.122;24.732;2024-02-04T08:58:25;17.20;47.00
79760;DHT22;70512;42.122;24.732;2024-02-04T09:00:52;18.60;43.70
79760;DHT22;70512;42.122;24.732;2024-02-04T09:03:20;21.00;38.80
79760;DHT22;70512;42.122;24.732;2024-02-04T09:05:48;22.80;34.20
79760;DHT22;70512;42.122;24.732;2024-02-04T09:08:16;23.50;32.20
79760;DHT22;70512;42.122;24.732;2024-02-04T09:10:43;24.30;30.80
79760;DHT22;70512;42.122;24.732;2024-02-04T09:13:11;24.30;29.80
79760;DHT22;70512;42.122;24.732;2024-02-04T09:15:39;23.60;31.00
79760;DHT22;70512;42.122;24.732;2024-02-04T09:18:08;25.60;29.20
79760;DHT22;70512;42.122;24.732;2024-02-04T09:20:36;27.80;26.50
79760;DHT22;70512;42.122;24.732;2024-02-04T09:23:04;27.20;26.30
79760;DHT22;70512;42.122;24.732;2024-02-04T09:25:32;24.10;28.60
79760;DHT22;70512;42.122;24.732;2024-02-04T09:28:00;22.30;32.40
79760;DHT22;70512;42.122;24.732;2024-02-04T09:30:27;21.20;35.20
79760;DHT22;70512;42.122;24.732;2024-02-04T09:32:55;20.20;36.80
79760;DHT22;70512;42.122;24.732;2024-02-04T09:35:23;19.20;39.20
79760;DHT22;70512;42.122;24.732;2024-02-04T09:37:51;18.50;40.90
79760;DHT22;70512;42.122;24.732;2024-02-04T09:40:21;18.00;42.30
79760;DHT22;70512;42.122;24.732;2024-02-04T09:42:49;17.90;43.00
79760;DHT22;70512;42.122;24.732;2024-02-04T09:45:18;18.30;42.10
79760;DHT22;70512;42.122;24.732;2024-02-04T09:47:46;19.70;39.60
79760;DHT22;70512;42.122;24.732;2024-02-04T09:50:14;21.10;36.00
79760;DHT22;70512;42.122;24.732;2024-02-04T09:52:44;22.10;34.00
79760;DHT22;70512;42.122;24.732;2024-02-04T09:55:14;23.50;31.40
79760;DHT22;70512;42.122;24.732;2024-02-04T09:57:44;23.70;30.00
79760;DHT22;70512;42.122;24.732;2024-02-04T10:00:12;22.40;31.70
79760;DHT22;70512;42.122;24.732;2024-02-04T10:02:41;21.10;34.60
79760;DHT22;70512;42.122;24.732;2024-02-04T10:05:09;20.40;36.20
79760;DHT22;70512;42.122;24.732;2024-02-04T10:07:38;19.90;37.70
79760;DHT22;70512;42.122;24.732;2024-02-04T10:10:07;19.50;38.60
79760;DHT22;70512;42.122;24.732;2024-02-04T10:12:35;19.00;39.70
79760;DHT22;70512;42.122;24.732;2024-02-04T10:15:05;18.50;40.70
79760;DHT22;70512;42.122;24.732;2024-02-04T10:17:33;18.10;42.30
79760;DHT22;70512;42.122;24.732;2024-02-04T10:20:01;17.60;43.50
79760;DHT22;70512;42.122;24.732;2024-02-04T10:22:29;17.60;44.10
79760;DHT22;70512;42.122;24.732;2024-02-04T10:25:07;17.20;44.50
79760;DHT22;70512;42.122;24.732;2024-02-04T10:27:35;16.90;44.70
79760;DHT22;70512;42.122;24.732;2024-02-04T10:30:03;16.30;45.60
79760;DHT22;70512;42.122;24.732;2024-02-04T10:32:31;16.30;45.90
79760;DHT22;70512;42.122;24.732;2024-02-04T10:34:59;16.10;46.60
79760;DHT22;70512;42.122;24.732;2024-02-04T10:37:28;16.00;47.30
79760;DHT22;70512;42.122;24.732;2024-02-04T10:39:56;15.70;47.50
79760;DHT22;70512;42.122;24.732;2024-02-04T10:42:27;15.50;47.90
79760;DHT22;70512;42.122;24.732;2024-02-04T10:44:55;15.50;48.20
79760;DHT22;70512;42.122;24.732;2024-02-04T10:47:29;15.60;48.20
79760;DHT22;70512;42.122;24.732;2024-02-04T10:49:54;15.80;48.10
79760;DHT22;70512;42.122;24.732;2024-02-04T10:52:23;16.20;47.50
79760;DHT22;70512;42.122;24.732;2024-02-04T10:54:53;16.70;45.80
79760;DHT22;70512;42.122;24.732;2024-02-04T10:57:21;18.20;42.90
79760;DHT22;70512;42.122;24.732;2024-02-04T10:59:52;18.50;41.20
79760;DHT22;70512;42.122;24.732;2024-02-04T11:02:20;17.80;42.60
79760;DHT22;70512;42.122;24.732;2024-02-04T11:04:49;17.20;44.00
79760;DHT22;70512;42.122;24.732;2024-02-04T11:07:18;16.90;44.90
79760;DHT22;70512;42.122;24.732;2024-02-04T11:09:48;16.70;45.50
79760;DHT22;70512;42.122;24.732;2024-02-04T11:12:19;16.60;46.10
79760;DHT22;70512;42.122;24.732;2024-02-04T11:14:51;16.70;45.80
79760;DHT22;70512;42.122;24.732;2024-02-04T11:17:42;16.50;45.50
79760;DHT22;70512;42.122;24.732;2024-02-04T11:20:14;16.50;46.00
79760;DHT22;70512;42.122;24.732;2024-02-04T11:23:02;16.90;45.70
79760;DHT22;70512;42.122;24.732;2024-02-04T11:25:45;17.30;44.00
79760;DHT22;70512;42.122;24.732;2024-02-04T11:28:13;18.00;42.20
79760;DHT22;70512;42.122;24.732;2024-02-04T11:30:46;19.80;38.90
79760;DHT22;70512;42.122;24.732;2024-02-04T11:33:18;22.00;33.80
79760;DHT22;70512;42.122;24.732;2024-02-04T11:35:47;22.00;32.70
79760;DHT22;70512;42.122;24.732;2024-02-04T11:38:21;21.70;33.50
79760;DHT22;70512;42.122;24.732;2024-02-04T11:40:46;21.80;33.20
79760;DHT22;70512;42.122;24.732;2024-02-04T11:43:15;22.90;31.30
79760;DHT22;70512;42.122;24.732;2024-02-04T11:45:43;23.30;30.40
79760;DHT22;70512;42.122;24.732;2024-02-04T11:48:12;21.60;33.00
79760;DHT22;70512;42.122;24.732;2024-02-04T11:50:41;20.70;34.90
79760;DHT22;70512;42.122;24.732;2024-02-04T11:53:10;20.40;35.70
79760;DHT22;70512;42.122;24.732;2024-02-04T11:55:40;20.90;35.10
79760;DHT22;70512;42.122;24.732;2024-02-04T11:58:08;22.20;32.10
79760;DHT22;70512;42.122;24.732;2024-02-04T12:00:36;20.70;33.80
79760;DHT22;70512;42.122;24.732;2024-02-04T12:03:08;19.60;37.20
79760;DHT22;70512;42.122;24.732;2024-02-04T12:05:37;20.60;35.60
79760;DHT22;70512;42.122;24.732;2024-02-04T12:08:07;21.40;33.70
79760;DHT22;70512;42.122;24.732;2024-02-04T12:10:36;20.90;34.40
79760;DHT22;70512;42.122;24.732;2024-02-04T12:13:06;20.70;35.30
79760;DHT22;70512;42.122;24.732;2024-02-04T12:15:37;20.70;35.00
79760;DHT22;70512;42.122;24.732;2024-02-04T12:18:11;19.90;36.70
79760;DHT22;70512;42.122;24.732;2024-02-04T12:20:36;19.80;37.10
79760;DHT22;70512;42.122;24.732;2024-02-04T12:23:05;20.60;35.90
79760;DHT22;70512;42.122;24.732;2024-02-04T12:25:33;21.00;34.90
79760;DHT22;70512;42.122;24.732;2024-02-04T12:28:02;21.10;34.20
79760;DHT22;70512;42.122;24.732;2024-02-04T12:30:31;21.70;33.10
79760;DHT22;70512;42.122;24.732;2024-02-04T12:33:03;20.40;35.60
79760;DHT22;70512;42.122;24.732;2024-02-04T12:35:32;20.20;36.60
79760;DHT22;70512;42.122;24.732;2024-02-04T12:38:00;20.60;36.00
79760;DHT22;70512;42.122;24.732;2024-02-04T12:40:30;20.80;35.60
79760;DHT22;70512;42.122;24.732;2024-02-04T12:43:00;21.20;35.40
79760;DHT22;70512;42.122;24.732;2024-02-04T12:45:31;21.50;33.90
79760;DHT22;70512;42.122;24.732;2024-02-04T12:47:59;21.30;34.50
79760;DHT22;70512;42.122;24.732;2024-02-04T12:50:27;21.80;33.90
79760;DHT22;70512;42.122;24.732;2024-02-04T12:53:05;22.20;33.20
79760;DHT22;70512;42.122;24.732;2024-02-04T12:55:35;22.20;33.00
79760;DHT22;70512;42.122;24.732;2024-02-04T12:58:08;21.90;33.00
79760;DHT22;70512;42.122;24.732;2024-02-04T13:00:38;21.70;34.30
79760;DHT22;70512;42.122;24.732;2024-02-04T13:03:07;21.80;34.30
79760;DHT22;70512;42.122;24.732;2024-02-04T13:05:36;21.80;34.00
79760;DHT22;70512;42.122;24.732;2024-02-04T13:08:05;21.60;34.40
79760;DHT22;70512;42.122;24.732;2024-02-04T13:10:35;22.70;33.10
79760;DHT22;70512;42.122;24.732;2024-02-04T13:13:07;22.80;32.10
79760;DHT22;70512;42.122;24.732;2024-02-04T13:15:40;22.80;32.00
79760;DHT22;70512;42.122;24.732;2024-02-04T13:18:10;22.00;33.20
79760;DHT22;70512;42.122;24.732;2024-02-04T13:20:44;21.60;34.30
79760;DHT22;70512;42.122;24.732;2024-02-04T13:23:12;21.30;35.00
79760;DHT22;70512;42.122;24.732;2024-02-04T13:25:39;21.70;34.50
79760;DHT22;70512;42.122;24.732;2024-02-04T13:28:08;21.10;35.00
79760;DHT22;70512;42.122;24.732;2024-02-04T13:30:36;19.20;39.30
79760;DHT22;70512;42.122;24.732;2024-02-04T13:33:04;19.20;40.00
79760;DHT22;70512;42.122;24.732;2024-02-04T13:35:32;19.60;38.70
79760;DHT22;70512;42.122;24.732;2024-02-04T13:38:00;19.20;39.20
79760;DHT22;70512;42.122;24.732;2024-02-04T13:40:29;18.50;41.00
79760;DHT22;70512;42.122;24.732;2024-02-04T13:42:56;17.80;42.80
79760;DHT22;70512;42.122;24.732;2024-02-04T13:45:24;17.10;44.50
79760;DHT22;70512;42.122;24.732;2024-02-04T13:47:53;16.80;45.70
79760;DHT22;70512;42.122;24.732;2024-02-04T13:50:21;16.60;46.20
79760;DHT22;70512;42.122;24.732;2024-02-04T13:52:49;16.50;46.70
79760;DHT22;70512;42.122;24.732;2024-02-04T13:55:16;16.40;47.10
79760;DHT22;70512;42.122;24.732;2024-02-04T13:57:44;16.20;47.50
79760;DHT22;70512;42.122;24.732;2024-02-04T14:00:13;16.20;47.70
79760;DHT22;70512;42.122;24.732;2024-02-04T14:02:42;16.20;47.70
79760;DHT22;70512;42.122;24.732;2024-02-04T14:05:10;16.10;48.10
79760;DHT22;70512;42.122;24.732;2024-02-04T14:07:39;16.10;48.40
79760;DHT22;70512;42.122;24.732;2024-02-04T14:10:08;16.00;48.80
79760;DHT22;70512;42.122;24.732;2024-02-04T14:12:37;15.90;48.80
79760;DHT22;70512;42.122;24.732;2024-02-04T14:15:06;15.90;49.70
79760;DHT22;70512;42.122;24.732;2024-02-04T14:17:34;15.80;49.20
79760;DHT22;70512;42.122;24.732;2024-02-04T14:20:02;15.80;49.30
79760;DHT22;70512;42.122;24.732;2024-02-04T14:22:31;15.80;49.50
79760;DHT22;70512;42.122;24.732;2024-02-04T14:24:58;15.70;49.40
79760;DHT22;70512;42.122;24.732;2024-02-04T14:27:26;15.70;49.50
79760;DHT22;70512;42.122;24.732;2024-02-04T14:29:56;15.70;49.40
79760;DHT22;70512;42.122;24.732;2024-02-04T14:32:24;15.80;49.50
79760;DHT22;70512;42.122;24.732;2024-02-04T14:34:52;15.80;49.50
79760;DHT22;70512;42.122;24.732;2024-02-04T14:37:21;15.70;49.70
79760;DHT22;70512;42.122;24.732;2024-02-04T14:39:49;15.70;49.80
79760;DHT22;70512;42.122;24.732;2024-02-04T14:42:17;15.60;49.80
79760;DHT22;70512;42.122;24.732;2024-02-04T14:44:45;15.60;49.70
79760;DHT22;70512;42.122;24.732;2024-02-04T14:47:12;15.60;49.40
79760;DHT22;70512;42.122;24.732;2024-02-04T14:49:40;15.60;49.40
79760;DHT22;70512;42.122;24.732;2024-02-04T14:52:08;15.60;49.40
79760;DHT22;70512;42.122;24.732;2024-02-04T14:54:35;15.50;49.30
79760;DHT22;70512;42.122;24.732;2024-02-04T14:57:06;15.50;49.50
79760;DHT22;70512;42.122;24.732;2024-02-04T14:59:33;15.50;49.50
79760;DHT22;70512;42.122;24.732;2024-02-04T15:02:08;15.40;49.60
79760;DHT22;70512;42.122;24.732;2024-02-04T15:04:35;15.50;49.70
79760;DHT22;70512;42.122;24.732;2024-02-04T15:07:03;15.40;49.90
79760;DHT22;70512;42.122;24.732;2024-02-04T15:09:34;15.40;50.00
79760;DHT22;70512;42.122;24.732;2024-02-04T15:12:02;15.30;50.10
79760;DHT22;70512;42.122;24.732;2024-02-04T15:14:30;15.30;50.20
79760;DHT22;70512;42.122;24.732;2024-02-04T15:16:58;15.30;50.20
79760;DHT22;70512;42.122;24.732;2024-02-04T15:19:27;15.40;50.40
79760;DHT22;70512;42.122;24.732;2024-02-04T15:21:57;15.30;50.60
79760;DHT22;70512;42.122;24.732;2024-02-04T15:24:25;15.20;50.70
79760;DHT22;70512;42.122;24.732;2024-02-04T15:26:53;15.30;50.90
79760;DHT22;70512;42.122;24.732;2024-02-04T15:29:21;15.20;51.10